sensor_id;sensor_type;location;lat;lon;timestamp;temperature;humidity
49385;DHT22;36795;45.028;38.968;2022-12-10T00:02:24;8.70;81.60
49385;DHT22;36795;45.028;38.968;2022-12-10T00:05:11;8.70;81.70
49385;DHT22;36795;45.028;38.968;2022-12-10T00:07:56;8.70;81.70
49385;DHT22;36795;45.028;38.968;2022-12-10T00:10:43;8.60;81.70
49385;DHT22;36795;45.028;38.968;2022-12-10T00:13:28;8.60;81.70
49385;DHT22;36795;45.028;38.968;2022-12-10T00:16:17;8.60;81.70
49385;DHT22;36795;45.028;38.968;2022-12-10T00:19:03;8.60;81.80
49385;DHT22;36795;45.028;38.968;2022-12-10T00:21:50;8.60;81.80
49385;DHT22;36795;45.028;38.968;2022-12-10T00:24:35;8.60;81.70
49385;DHT22;36795;45.028;38.968;2022-12-10T00:27:22;8.70;81.80
49385;DHT22;36795;45.028;38.968;2022-12-10T00:30:08;8.70;81.60
49385;DHT22;36795;45.028;38.968;2022-12-10T00:32:55;8.80;81.40
49385;DHT22;36795;45.028;38.968;2022-12-10T00:35:40;8.80;81.20
49385;DHT22;36795;45.028;38.968;2022-12-10T00:38:28;8.90;81.20
49385;DHT22;36795;45.028;38.968;2022-12-10T00:41:15;8.90;81.00
49385;DHT22;36795;45.028;38.968;2022-12-10T00:44:02;9.00;80.90
49385;DHT22;36795;45.028;38.968;2022-12-10T00:46:48;8.90;80.70
49385;DHT22;36795;45.028;38.968;2022-12-10T00:49:34;9.00;80.70
49385;DHT22;36795;45.028;38.968;2022-12-10T00:52:20;9.00;80.50
49385;DHT22;36795;45.028;38.968;2022-12-10T00:55:06;9.00;80.50
49385;DHT22;36795;45.028;38.968;2022-12-10T00:57:52;9.00;80.50
49385;DHT22;36795;45.028;38.968;2022-12-10T01:00:38;9.00;80.60
49385;DHT22;36795;45.028;38.968;2022-12-10T01:03:24;9.00;80.50
49385;DHT22;36795;45.028;38.968;2022-12-10T01:06:19;9.10;80.50
49385;DHT22;36795;45.028;38.968;2022-12-10T01:09:07;9.10;80.50
49385;DHT22;36795;45.028;38.968;2022-12-10T01:11:59;9.10;80.40
49385;DHT22;36795;45.028;38.968;2022-12-10T01:14:46;9.20;80.40
49385;DHT22;36795;45.028;38.968;2022-12-10T01:17:35;9.20;80.40
49385;DHT22;36795;45.028;38.968;2022-12-10T01:20:20;9.20;80.50
49385;DHT22;36795;45.028;38.968;2022-12-10T01:23:06;9.20;80.50
49385;DHT22;36795;45.028;38.968;2022-12-10T01:25:52;9.20;80.60
49385;DHT22;36795;45.028;38.968;2022-12-10T01:28:40;9.20;80.60
49385;DHT22;36795;45.028;38.968;2022-12-10T01:31:28;9.20;80.50
49385;DHT22;36795;45.028;38.968;2022-12-10T01:34:15;9.20;80.50
49385;DHT22;36795;45.028;38.968;2022-12-10T01:37:01;9.20;80.50
49385;DHT22;36795;45.028;38.968;2022-12-10T01:39:50;9.20;80.50
49385;DHT22;36795;45.028;38.968;2022-12-10T01:42:37;9.30;80.60
49385;DHT22;36795;45.028;38.968;2022-12-10T01:45:24;9.30;80.60
49385;DHT22;36795;45.028;38.968;2022-12-10T01:48:09;9.30;80.70
49385;DHT22;36795;45.028;38.968;2022-12-10T01:50:56;9.30;80.70
49385;DHT22;36795;45.028;38.968;2022-12-10T01:53:42;9.30;80.70
49385;DHT22;36795;45.028;38.968;2022-12-10T01:56:29;9.30;80.60
49385;DHT22;36795;45.028;38.968;2022-12-10T01:59:17;9.40;80.60
49385;DHT22;36795;45.028;38.968;2022-12-10T02:02:38;9.40;80.60
49385;DHT22;36795;45.028;38.968;2022-12-10T02:05:38;9.30;80.70
49385;DHT22;36795;45.028;38.968;2022-12-10T02:08:33;9.30;81.00
49385;DHT22;36795;45.028;38.968;2022-12-10T02:11:36;9.30;81.10
49385;DHT22;36795;45.028;38.968;2022-12-10T02:17:46;9.20;81.20
49385;DHT22;36795;45.028;38.968;2022-12-10T02:20:40;9.30;81.10
49385;DHT22;36795;45.028;38.968;2022-12-10T02:23:36;9.30;81.10
49385;DHT22;36795;45.028;38.968;2022-12-10T02:26:44;9.40;81.10
49385;DHT22;36795;45.028;38.968;2022-12-10T02:29:32;9.40;81.10
49385;DHT22;36795;45.028;38.968;2022-12-10T02:32:30;9.40;81.00
49385;DHT22;36795;45.028;38.968;2022-12-10T02:35:28;9.50;81.00
49385;DHT22;36795;45.028;38.968;2022-12-10T02:38:39;9.60;80.90
49385;DHT22;36795;45.028;38.968;2022-12-10T02:41:37;9.70;80.80
49385;DHT22;36795;45.028;38.968;2022-12-10T02:44:24;9.70;80.60
49385;DHT22;36795;45.028;38.968;2022-12-10T02:47:12;9.70;80.30
49385;DHT22;36795;45.028;38.968;2022-12-10T02:49:59;9.80;80.30
49385;DHT22;36795;45.028;38.968;2022-12-10T02:52:46;9.80;80.30
49385;DHT22;36795;45.028;38.968;2022-12-10T02:55:53;9.80;80.40
49385;DHT22;36795;45.028;38.968;2022-12-10T03:02:22;9.80;80.40
49385;DHT22;36795;45.028;38.968;2022-12-10T03:05:22;9.80;80.40
49385;DHT22;36795;45.028;38.968;2022-12-10T03:11:12;9.80;80.30
49385;DHT22;36795;45.028;38.968;2022-12-10T03:16:59;9.80;80.30
49385;DHT22;36795;45.028;38.968;2022-12-10T03:19:49;9.80;80.30
49385;DHT22;36795;45.028;38.968;2022-12-10T03:22:39;9.80;80.20
49385;DHT22;36795;45.028;38.968;2022-12-10T03:25:29;9.90;80.20
49385;DHT22;36795;45.028;38.968;2022-12-10T03:28:19;9.80;80.20
49385;DHT22;36795;45.028;38.968;2022-12-10T03:31:07;9.90;80.20
49385;DHT22;36795;45.028;38.968;2022-12-10T03:33:55;9.90;80.00
49385;DHT22;36795;45.028;38.968;2022-12-10T03:36:42;9.90;79.90
49385;DHT22;36795;45.028;38.968;2022-12-10T03:39:28;9.90;79.80
49385;DHT22;36795;45.028;38.968;2022-12-10T03:42:14;9.90;79.70
49385;DHT22;36795;45.028;38.968;2022-12-10T03:45:01;9.90;79.60
49385;DHT22;36795;45.028;38.968;2022-12-10T03:47:48;9.90;79.60
49385;DHT22;36795;45.028;38.968;2022-12-10T03:50:35;9.80;79.70
49385;DHT22;36795;45.028;38.968;2022-12-10T03:53:21;9.70;79.80
49385;DHT22;36795;45.028;38.968;2022-12-10T03:56:07;9.70;79.90
49385;DHT22;36795;45.028;38.968;2022-12-10T03:58:53;9.70;80.00
49385;DHT22;36795;45.028;38.968;2022-12-10T04:01:39;9.70;80.00
49385;DHT22;36795;45.028;38.968;2022-12-10T04:04:26;9.70;80.00
49385;DHT22;36795;45.028;38.968;2022-12-10T04:07:14;9.70;80.00
49385;DHT22;36795;45.028;38.968;2022-12-10T04:10:02;9.60;79.90
49385;DHT22;36795;45.028;38.968;2022-12-10T04:12:48;9.60;80.00
49385;DHT22;36795;45.028;38.968;2022-12-10T04:15:56;9.50;80.10
49385;DHT22;36795;45.028;38.968;2022-12-10T04:19:09;9.50;80.30
49385;DHT22;36795;45.028;38.968;2022-12-10T04:21:56;9.50;80.40
49385;DHT22;36795;45.028;38.968;2022-12-10T04:25:00;9.50;80.50
49385;DHT22;36795;45.028;38.968;2022-12-10T04:28:06;9.50;80.30
49385;DHT22;36795;45.028;38.968;2022-12-10T04:30:51;9.40;80.60
49385;DHT22;36795;45.028;38.968;2022-12-10T04:33:38;9.50;80.50
49385;DHT22;36795;45.028;38.968;2022-12-10T04:36:24;9.50;80.40
49385;DHT22;36795;45.028;38.968;2022-12-10T04:39:10;9.50;80.40
49385;DHT22;36795;45.028;38.968;2022-12-10T04:41:58;9.50;80.20
49385;DHT22;36795;45.028;38.968;2022-12-10T04:44:45;9.50;80.00
49385;DHT22;36795;45.028;38.968;2022-12-10T04:47:31;9.50;79.80
49385;DHT22;36795;45.028;38.968;2022-12-10T04:50:17;9.50;79.70
49385;DHT22;36795;45.028;38.968;2022-12-10T04:53:03;9.40;79.60
49385;DHT22;36795;45.028;38.968;2022-12-10T04:55:50;9.40;79.60
49385;DHT22;36795;45.028;38.968;2022-12-10T04:58:35;9.40;79.50
49385;DHT22;36795;45.028;38.968;2022-12-10T05:01:21;9.30;79.50
49385;DHT22;36795;45.028;38.968;2022-12-10T05:04:10;9.30;79.60
49385;DHT22;36795;45.028;38.968;2022-12-10T05:06:57;9.30;79.70
49385;DHT22;36795;45.028;38.968;2022-12-10T05:09:44;9.20;79.70
49385;DHT22;36795;45.028;38.968;2022-12-10T05:12:31;9.20;79.70
49385;DHT22;36795;45.028;38.968;2022-12-10T05:15:17;9.20;79.70
49385;DHT22;36795;45.028;38.968;2022-12-10T05:18:03;9.20;79.70
49385;DHT22;36795;45.028;38.968;2022-12-10T05:20:49;9.20;79.80
49385;DHT22;36795;45.028;38.968;2022-12-10T05:23:38;9.20;79.60
49385;DHT22;36795;45.028;38.968;2022-12-10T05:26:24;9.20;79.50
49385;DHT22;36795;45.028;38.968;2022-12-10T05:29:12;9.20;79.50
49385;DHT22;36795;45.028;38.968;2022-12-10T05:31:58;9.30;79.40
49385;DHT22;36795;45.028;38.968;2022-12-10T05:34:44;9.40;79.10
49385;DHT22;36795;45.028;38.968;2022-12-10T05:37:30;9.40;78.90
49385;DHT22;36795;45.028;38.968;2022-12-10T05:40:16;9.50;78.70
49385;DHT22;36795;45.028;38.968;2022-12-10T05:43:02;9.60;78.60
49385;DHT22;36795;45.028;38.968;2022-12-10T05:45:49;10.00;78.80
49385;DHT22;36795;45.028;38.968;2022-12-10T05:48:35;10.90;76.80
49385;DHT22;36795;45.028;38.968;2022-12-10T05:51:25;11.80;74.10
49385;DHT22;36795;45.028;38.968;2022-12-10T05:54:11;12.30;71.90
49385;DHT22;36795;45.028;38.968;2022-12-10T05:56:57;12.40;70.70
49385;DHT22;36795;45.028;38.968;2022-12-10T05:59:43;12.10;70.30
49385;DHT22;36795;45.028;38.968;2022-12-10T06:02:32;11.60;71.10
49385;DHT22;36795;45.028;38.968;2022-12-10T06:05:19;11.20;72.00
49385;DHT22;36795;45.028;38.968;2022-12-10T06:08:06;11.00;72.90
49385;DHT22;36795;45.028;38.968;2022-12-10T06:10:52;11.20;72.90
49385;DHT22;36795;45.028;38.968;2022-12-10T06:13:39;11.50;71.80
49385;DHT22;36795;45.028;38.968;2022-12-10T06:16:27;11.50;71.30
49385;DHT22;36795;45.028;38.968;2022-12-10T06:19:13;11.80;71.20
49385;DHT22;36795;45.028;38.968;2022-12-10T06:21:59;12.40;69.80
49385;DHT22;36795;45.028;38.968;2022-12-10T06:24:45;12.80;68.10
49385;DHT22;36795;45.028;38.968;2022-12-10T06:27:31;13.00;67.50
49385;DHT22;36795;45.028;38.968;2022-12-10T06:30:17;13.50;66.00
49385;DHT22;36795;45.028;38.968;2022-12-10T06:33:03;14.20;63.90
49385;DHT22;36795;45.028;38.968;2022-12-10T06:35:49;15.00;61.40
49385;DHT22;36795;45.028;38.968;2022-12-10T06:38:36;15.10;59.60
49385;DHT22;36795;45.028;38.968;2022-12-10T06:41:22;14.50;60.70
49385;DHT22;36795;45.028;38.968;2022-12-10T06:44:08;14.60;60.40
49385;DHT22;36795;45.028;38.968;2022-12-10T06:46:54;14.20;61.20
49385;DHT22;36795;45.028;38.968;2022-12-10T06:49:41;14.30;61.00
49385;DHT22;36795;45.028;38.968;2022-12-10T06:52:27;14.20;61.50
49385;DHT22;36795;45.028;38.968;2022-12-10T06:55:13;14.40;61.10
49385;DHT22;36795;45.028;38.968;2022-12-10T06:57:59;14.70;60.20
49385;DHT22;36795;45.028;38.968;2022-12-10T07:00:45;14.40;60.20
49385;DHT22;36795;45.028;38.968;2022-12-10T07:03:31;14.20;60.50
49385;DHT22;36795;45.028;38.968;2022-12-10T07:06:18;13.60;61.60
49385;DHT22;36795;45.028;38.968;2022-12-10T07:09:04;13.20;62.70
49385;DHT22;36795;45.028;38.968;2022-12-10T07:11:51;12.90;63.50
49385;DHT22;36795;45.028;38.968;2022-12-10T07:14:36;12.80;64.20
49385;DHT22;36795;45.028;38.968;2022-12-10T07:17:23;12.90;64.20
49385;DHT22;36795;45.028;38.968;2022-12-10T07:20:09;13.30;64.30
49385;DHT22;36795;45.028;38.968;2022-12-10T07:22:57;14.70;61.60
49385;DHT22;36795;45.028;38.968;2022-12-10T07:25:43;15.70;58.80
49385;DHT22;36795;45.028;38.968;2022-12-10T07:28:29;15.80;57.60
49385;DHT22;36795;45.028;38.968;2022-12-10T07:31:15;15.40;57.90
49385;DHT22;36795;45.028;38.968;2022-12-10T07:34:01;15.60;58.20
49385;DHT22;36795;45.028;38.968;2022-12-10T07:36:47;16.80;55.80
49385;DHT22;36795;45.028;38.968;2022-12-10T07:39:34;17.80;53.80
49385;DHT22;36795;45.028;38.968;2022-12-10T07:42:19;18.90;51.40
49385;DHT22;36795;45.028;38.968;2022-12-10T07:45:07;19.60;49.40
49385;DHT22;36795;45.028;38.968;2022-12-10T07:47:53;19.30;49.40
49385;DHT22;36795;45.028;38.968;2022-12-10T07:50:40;18.80;50.00
49385;DHT22;36795;45.028;38.968;2022-12-10T07:53:26;18.50;50.40
49385;DHT22;36795;45.028;38.968;2022-12-10T07:56:12;18.20;51.60
49385;DHT22;36795;45.028;38.968;2022-12-10T07:58:57;18.00;51.60
49385;DHT22;36795;45.028;38.968;2022-12-10T08:01:44;18.10;51.00
49385;DHT22;36795;45.028;38.968;2022-12-10T08:04:30;18.90;49.60
49385;DHT22;36795;45.028;38.968;2022-12-10T08:07:16;19.30;48.30
49385;DHT22;36795;45.028;38.968;2022-12-10T08:10:03;19.00;48.70
49385;DHT22;36795;45.028;38.968;2022-12-10T08:12:49;18.20;49.70
49385;DHT22;36795;45.028;38.968;2022-12-10T08:15:35;17.40;51.10
49385;DHT22;36795;45.028;38.968;2022-12-10T08:18:22;16.90;52.40
49385;DHT22;36795;45.028;38.968;2022-12-10T08:21:14;16.80;53.00
49385;DHT22;36795;45.028;38.968;2022-12-10T08:24:02;16.50;53.40
49385;DHT22;36795;45.028;38.968;2022-12-10T08:26:48;16.50;53.90
49385;DHT22;36795;45.028;38.968;2022-12-10T08:29:34;17.20;53.10
49385;DHT22;36795;45.028;38.968;2022-12-10T08:32:21;17.90;51.50
49385;DHT22;36795;45.028;38.968;2022-12-10T08:35:07;18.50;50.60
49385;DHT22;36795;45.028;38.968;2022-12-10T08:37:53;19.30;49.40
49385;DHT22;36795;45.028;38.968;2022-12-10T08:40:40;20.50;47.60
49385;DHT22;36795;45.028;38.968;2022-12-10T08:43:27;21.50;45.30
49385;DHT22;36795;45.028;38.968;2022-12-10T08:46:14;21.50;44.50
49385;DHT22;36795;45.028;38.968;2022-12-10T08:49:01;22.10;43.90
49385;DHT22;36795;45.028;38.968;2022-12-10T08:51:47;23.30;42.00
49385;DHT22;36795;45.028;38.968;2022-12-10T08:54:34;24.90;39.30
49385;DHT22;36795;45.028;38.968;2022-12-10T08:57:19;25.90;37.70
49385;DHT22;36795;45.028;38.968;2022-12-10T09:00:06;26.60;36.30
49385;DHT22;36795;45.028;38.968;2022-12-10T09:02:52;26.70;36.10
49385;DHT22;36795;45.028;38.968;2022-12-10T09:05:40;26.30;36.50
49385;DHT22;36795;45.028;38.968;2022-12-10T09:08:26;25.50;36.80
49385;DHT22;36795;45.028;38.968;2022-12-10T09:11:26;24.40;38.10
49385;DHT22;36795;45.028;38.968;2022-12-10T09:14:13;23.70;39.40
49385;DHT22;36795;45.028;38.968;2022-12-10T09:17:03;23.90;39.30
49385;DHT22;36795;45.028;38.968;2022-12-10T09:19:49;24.10;38.80
49385;DHT22;36795;45.028;38.968;2022-12-10T09:22:36;24.10;38.90
49385;DHT22;36795;45.028;38.968;2022-12-10T09:25:22;23.80;39.30
49385;DHT22;36795;45.028;38.968;2022-12-10T09:28:08;23.20;40.30
49385;DHT22;36795;45.028;38.968;2022-12-10T09:30:58;23.20;40.20
49385;DHT22;36795;45.028;38.968;2022-12-10T09:33:45;22.70;40.60
49385;DHT22;36795;45.028;38.968;2022-12-10T09:36:32;22.70;40.90
49385;DHT22;36795;45.028;38.968;2022-12-10T09:39:18;23.20;40.40
49385;DHT22;36795;45.028;38.968;2022-12-10T09:42:36;24.40;38.90
49385;DHT22;36795;45.028;38.968;2022-12-10T09:46:04;25.30;37.60
49385;DHT22;36795;45.028;38.968;2022-12-10T09:52:14;24.40;38.90
49385;DHT22;36795;45.028;38.968;2022-12-10T09:55:05;25.40;37.70
49385;DHT22;36795;45.028;38.968;2022-12-10T09:57:56;26.20;36.10
49385;DHT22;36795;45.028;38.968;2022-12-10T10:00:45;27.00;35.30
49385;DHT22;36795;45.028;38.968;2022-12-10T10:03:36;27.70;34.80
49385;DHT22;36795;45.028;38.968;2022-12-10T10:06:24;27.80;34.20
49385;DHT22;36795;45.028;38.968;2022-12-10T10:09:14;27.00;34.20
49385;DHT22;36795;45.028;38.968;2022-12-10T10:12:01;26.10;36.60
49385;DHT22;36795;45.028;38.968;2022-12-10T10:14:48;26.10;35.70
49385;DHT22;36795;45.028;38.968;2022-12-10T10:17:36;26.30;35.60
49385;DHT22;36795;45.028;38.968;2022-12-10T10:20:23;26.50;35.40
49385;DHT22;36795;45.028;38.968;2022-12-10T10:23:13;26.70;35.10
49385;DHT22;36795;45.028;38.968;2022-12-10T10:26:00;26.80;34.70
49385;DHT22;36795;45.028;38.968;2022-12-10T10:28:46;27.20;34.80
49385;DHT22;36795;45.028;38.968;2022-12-10T10:31:35;27.50;34.40
49385;DHT22;36795;45.028;38.968;2022-12-10T10:34:23;26.90;34.60
49385;DHT22;36795;45.028;38.968;2022-12-10T10:37:26;26.30;35.20
49385;DHT22;36795;45.028;38.968;2022-12-10T10:40:25;26.20;35.50
49385;DHT22;36795;45.028;38.968;2022-12-10T12:25:38;18.40;50.30
49385;DHT22;36795;45.028;38.968;2022-12-10T12:35:20;18.30;49.80
49385;DHT22;36795;45.028;38.968;2022-12-10T12:39:03;18.20;49.70
49385;DHT22;36795;45.028;38.968;2022-12-10T12:44:49;18.10;50.00
49385;DHT22;36795;45.028;38.968;2022-12-10T12:51:17;17.90;50.60
49385;DHT22;36795;45.028;38.968;2022-12-10T12:54:07;17.80;51.00
49385;DHT22;36795;45.028;38.968;2022-12-10T12:57:18;17.70;51.30
49385;DHT22;36795;45.028;38.968;2022-12-10T13:00:17;17.60;51.70
49385;DHT22;36795;45.028;38.968;2022-12-10T13:06:21;17.40;52.10
49385;DHT22;36795;45.028;38.968;2022-12-10T13:17:38;16.90;53.10
49385;DHT22;36795;45.028;38.968;2022-12-10T13:26:26;16.60;54.00
49385;DHT22;36795;45.028;38.968;2022-12-10T13:29:24;16.50;54.40
49385;DHT22;36795;45.028;38.968;2022-12-10T13:32:20;16.40;54.50
49385;DHT22;36795;45.028;38.968;2022-12-10T13:38:18;16.20;55.20
49385;DHT22;36795;45.028;38.968;2022-12-10T13:41:06;16.10;55.60
49385;DHT22;36795;45.028;38.968;2022-12-10T13:44:36;15.90;55.80
49385;DHT22;36795;45.028;38.968;2022-12-10T13:47:27;15.90;56.10
49385;DHT22;36795;45.028;38.968;2022-12-10T13:53:32;15.60;56.90
49385;DHT22;36795;45.028;38.968;2022-12-10T13:56:30;15.40;57.40
49385;DHT22;36795;45.028;38.968;2022-12-10T13:59:44;15.30;57.70
49385;DHT22;36795;45.028;38.968;2022-12-10T14:06:02;15.00;58.60
49385;DHT22;36795;45.028;38.968;2022-12-10T14:09:18;14.90;59.20
49385;DHT22;36795;45.028;38.968;2022-12-10T14:12:13;14.80;59.60
49385;DHT22;36795;45.028;38.968;2022-12-10T14:15:07;14.70;59.80
49385;DHT22;36795;45.028;38.968;2022-12-10T14:18:03;14.60;59.90
49385;DHT22;36795;45.028;38.968;2022-12-10T14:20:52;14.60;60.00
49385;DHT22;36795;45.028;38.968;2022-12-10T14:23:45;14.60;60.10
49385;DHT22;36795;45.028;38.968;2022-12-10T14:26:33;14.60;60.10
49385;DHT22;36795;45.028;38.968;2022-12-10T14:29:21;14.60;60.00
49385;DHT22;36795;45.028;38.968;2022-12-10T14:32:19;14.50;60.00
49385;DHT22;36795;45.028;38.968;2022-12-10T14:35:23;14.50;60.00
49385;DHT22;36795;45.028;38.968;2022-12-10T14:38:18;14.50;60.20
49385;DHT22;36795;45.028;38.968;2022-12-10T14:41:06;14.40;60.20
49385;DHT22;36795;45.028;38.968;2022-12-10T14:43:53;14.30;60.30
49385;DHT22;36795;45.028;38.968;2022-12-10T14:46:39;14.30;60.30
49385;DHT22;36795;45.028;38.968;2022-12-10T14:49:26;14.20;60.20
49385;DHT22;36795;45.028;38.968;2022-12-10T14:52:20;14.20;60.30
49385;DHT22;36795;45.028;38.968;2022-12-10T14:55:06;14.20;60.30
49385;DHT22;36795;45.028;38.968;2022-12-10T14:57:56;14.10;60.30
49385;DHT22;36795;45.028;38.968;2022-12-10T15:00:42;14.00;60.30
49385;DHT22;36795;45.028;38.968;2022-12-10T15:03:32;14.00;60.20
49385;DHT22;36795;45.028;38.968;2022-12-10T15:06:19;13.90;60.30
49385;DHT22;36795;45.028;38.968;2022-12-10T15:09:09;13.90;60.40
49385;DHT22;36795;45.028;38.968;2022-12-10T15:11:59;13.90;60.50
49385;DHT22;36795;45.028;38.968;2022-12-10T15:14:47;13.80;60.40
49385;DHT22;36795;45.028;38.968;2022-12-10T15:17:41;13.80;60.40
49385;DHT22;36795;45.028;38.968;2022-12-10T15:20:36;13.80;60.40
49385;DHT22;36795;45.028;38.968;2022-12-10T15:26:23;13.60;60.50
49385;DHT22;36795;45.028;38.968;2022-12-10T15:29:32;13.60;60.40
49385;DHT22;36795;45.028;38.968;2022-12-10T15:32:27;13.60;60.30
49385;DHT22;36795;45.028;38.968;2022-12-10T15:35:15;13.50;60.40
49385;DHT22;36795;45.028;38.968;2022-12-10T15:38:01;13.50;60.40
49385;DHT22;36795;45.028;38.968;2022-12-10T15:40:47;13.40;60.30
49385;DHT22;36795;45.028;38.968;2022-12-10T15:43:33;13.40;60.40
49385;DHT22;36795;45.028;38.968;2022-12-10T15:46:19;13.30;60.40
49385;DHT22;36795;45.028;38.968;2022-12-10T15:49:05;13.30;60.40
49385;DHT22;36795;45.028;38.968;2022-12-10T15:51:51;13.30;60.60
49385;DHT22;36795;45.028;38.968;2022-12-10T15:54:39;13.20;60.60
49385;DHT22;36795;45.028;38.968;2022-12-10T15:57:26;13.20;60.70
49385;DHT22;36795;45.028;38.968;2022-12-10T16:00:22;13.20;60.80
49385;DHT22;36795;45.028;38.968;2022-12-10T16:03:11;13.10;60.80
49385;DHT22;36795;45.028;38.968;2022-12-10T16:05:57;13.10;60.90
49385;DHT22;36795;45.028;38.968;2022-12-10T16:08:44;13.10;61.00
49385;DHT22;36795;45.028;38.968;2022-12-10T16:11:31;13.00;61.00
49385;DHT22;36795;45.028;38.968;2022-12-10T16:14:18;13.00;61.10
49385;DHT22;36795;45.028;38.968;2022-12-10T16:17:05;12.90;61.20
49385;DHT22;36795;45.028;38.968;2022-12-10T16:20:22;12.90;61.20
49385;DHT22;36795;45.028;38.968;2022-12-10T16:23:09;12.90;61.20
49385;DHT22;36795;45.028;38.968;2022-12-10T16:25:55;12.90;61.40
49385;DHT22;36795;45.028;38.968;2022-12-10T16:28:42;12.90;61.40
49385;DHT22;36795;45.028;38.968;2022-12-10T16:31:28;12.90;61.50
49385;DHT22;36795;45.028;38.968;2022-12-10T16:34:15;12.90;61.40
49385;DHT22;36795;45.028;38.968;2022-12-10T16:37:01;12.90;61.50
49385;DHT22;36795;45.028;38.968;2022-12-10T16:39:47;12.80;61.40
49385;DHT22;36795;45.028;38.968;2022-12-10T16:42:33;12.90;61.50
49385;DHT22;36795;45.028;38.968;2022-12-10T16:45:23;12.80;61.60
49385;DHT22;36795;45.028;38.968;2022-12-10T16:48:10;12.80;61.70
49385;DHT22;36795;45.028;38.968;2022-12-10T16:50:58;12.80;61.80
49385;DHT22;36795;45.028;38.968;2022-12-10T16:53:45;12.80;61.80
49385;DHT22;36795;45.028;38.968;2022-12-10T16:56:31;12.80;61.90
49385;DHT22;36795;45.028;38.968;2022-12-10T16:59:18;12.70;61.80
49385;DHT22;36795;45.028;38.968;2022-12-10T17:02:13;12.70;61.90
49385;DHT22;36795;45.028;38.968;2022-12-10T17:05:01;12.70;62.00
49385;DHT22;36795;45.028;38.968;2022-12-10T17:07:47;12.60;62.10
49385;DHT22;36795;45.028;38.968;2022-12-10T17:10:33;12.60;62.20
49385;DHT22;36795;45.028;38.968;2022-12-10T17:13:39;12.50;62.20
49385;DHT22;36795;45.028;38.968;2022-12-10T17:16:26;12.50;62.40
49385;DHT22;36795;45.028;38.968;2022-12-10T17:19:12;12.50;62.60
49385;DHT22;36795;45.028;38.968;2022-12-10T17:21:59;12.60;62.60
49385;DHT22;36795;45.028;38.968;2022-12-10T17:24:45;12.50;62.60
49385;DHT22;36795;45.028;38.968;2022-12-10T17:27:31;12.50;63.30
49385;DHT22;36795;45.028;38.968;2022-12-10T17:30:17;12.40;62.80
49385;DHT22;36795;45.028;38.968;2022-12-10T17:33:04;12.40;63.00
49385;DHT22;36795;45.028;38.968;2022-12-10T17:35:51;12.30;63.00
49385;DHT22;36795;45.028;38.968;2022-12-10T17:38:38;12.30;63.10
49385;DHT22;36795;45.028;38.968;2022-12-10T17:41:23;12.20;63.20
49385;DHT22;36795;45.028;38.968;2022-12-10T17:44:10;12.30;63.30
49385;DHT22;36795;45.028;38.968;2022-12-10T17:46:56;12.20;63.40
49385;DHT22;36795;45.028;38.968;2022-12-10T17:49:44;12.20;63.40
49385;DHT22;36795;45.028;38.968;2022-12-10T17:52:30;12.20;63.40
49385;DHT22;36795;45.028;38.968;2022-12-10T17:55:17;12.20;63.30
49385;DHT22;36795;45.028;38.968;2022-12-10T17:58:03;12.30;63.30
49385;DHT22;36795;45.028;38.968;2022-12-10T18:00:51;12.30;63.30
49385;DHT22;36795;45.028;38.968;2022-12-10T18:03:38;12.30;63.30
49385;DHT22;36795;45.028;38.968;2022-12-10T18:06:28;12.30;63.30
49385;DHT22;36795;45.028;38.968;2022-12-10T18:09:15;12.40;63.30
49385;DHT22;36795;45.028;38.968;2022-12-10T18:12:00;12.40;63.30
49385;DHT22;36795;45.028;38.968;2022-12-10T18:14:46;12.40;63.20
49385;DHT22;36795;45.028;38.968;2022-12-10T18:17:32;12.40;63.10
49385;DHT22;36795;45.028;38.968;2022-12-10T18:20:27;12.50;63.10
49385;DHT22;36795;45.028;38.968;2022-12-10T18:23:13;12.50;63.00
49385;DHT22;36795;45.028;38.968;2022-12-10T18:26:00;12.50;63.00
49385;DHT22;36795;45.028;38.968;2022-12-10T18:28:56;12.50;63.00
49385;DHT22;36795;45.028;38.968;2022-12-10T18:31:44;12.50;63.10
49385;DHT22;36795;45.028;38.968;2022-12-10T18:34:29;12.50;63.20
49385;DHT22;36795;45.028;38.968;2022-12-10T18:37:15;12.50;63.20
49385;DHT22;36795;45.028;38.968;2022-12-10T18:40:01;12.40;63.30
49385;DHT22;36795;45.028;38.968;2022-12-10T18:42:48;12.40;63.30
49385;DHT22;36795;45.028;38.968;2022-12-10T18:45:36;12.40;63.30
49385;DHT22;36795;45.028;38.968;2022-12-10T18:48:22;12.40;63.40
49385;DHT22;36795;45.028;38.968;2022-12-10T18:51:08;12.40;63.40
49385;DHT22;36795;45.028;38.968;2022-12-10T18:53:55;12.40;63.50
49385;DHT22;36795;45.028;38.968;2022-12-10T18:56:41;12.40;63.60
49385;DHT22;36795;45.028;38.968;2022-12-10T18:59:28;12.30;63.60
49385;DHT22;36795;45.028;38.968;2022-12-10T19:02:13;12.30;63.70
49385;DHT22;36795;45.028;38.968;2022-12-10T19:05:00;12.30;63.80
49385;DHT22;36795;45.028;38.968;2022-12-10T19:07:46;12.30;63.90
49385;DHT22;36795;45.028;38.968;2022-12-10T19:10:32;12.20;64.00
49385;DHT22;36795;45.028;38.968;2022-12-10T19:13:18;12.20;64.20
49385;DHT22;36795;45.028;38.968;2022-12-10T19:16:16;12.20;64.30
49385;DHT22;36795;45.028;38.968;2022-12-10T19:19:02;12.10;64.40
49385;DHT22;36795;45.028;38.968;2022-12-10T19:21:51;12.10;64.50
49385;DHT22;36795;45.028;38.968;2022-12-10T19:24:37;12.10;64.50
49385;DHT22;36795;45.028;38.968;2022-12-10T19:27:23;12.10;64.60
49385;DHT22;36795;45.028;38.968;2022-12-10T19:30:18;12.10;64.60
49385;DHT22;36795;45.028;38.968;2022-12-10T19:33:05;12.10;64.70
49385;DHT22;36795;45.028;38.968;2022-12-10T19:35:51;12.10;64.60
49385;DHT22;36795;45.028;38.968;2022-12-10T19:38:37;12.10;64.60
49385;DHT22;36795;45.028;38.968;2022-12-10T19:41:23;12.10;64.60
49385;DHT22;36795;45.028;38.968;2022-12-10T19:44:09;12.10;64.50
49385;DHT22;36795;45.028;38.968;2022-12-10T19:46:55;12.20;64.60
49385;DHT22;36795;45.028;38.968;2022-12-10T19:49:41;12.10;64.60
49385;DHT22;36795;45.028;38.968;2022-12-10T19:52:27;12.10;64.70
49385;DHT22;36795;45.028;38.968;2022-12-10T19:55:15;12.10;64.80
49385;DHT22;36795;45.028;38.968;2022-12-10T19:58:01;12.00;64.80
49385;DHT22;36795;45.028;38.968;2022-12-10T20:00:47;11.90;64.90
49385;DHT22;36795;45.028;38.968;2022-12-10T20:03:33;11.90;65.00
49385;DHT22;36795;45.028;38.968;2022-12-10T20:06:22;11.80;65.10
49385;DHT22;36795;45.028;38.968;2022-12-10T20:09:20;11.80;65.30
49385;DHT22;36795;45.028;38.968;2022-12-10T20:12:07;11.70;65.30
49385;DHT22;36795;45.028;38.968;2022-12-10T20:14:54;11.60;65.60
49385;DHT22;36795;45.028;38.968;2022-12-10T20:17:39;11.60;65.70
49385;DHT22;36795;45.028;38.968;2022-12-10T20:20:28;11.50;65.80